This is the latest recevied weather packets stored in our database for station/object WL7BUN-9. If no packets are shown the sender has not sent any weather packets the latest 10 day(s).
| Time | Temp. | Humidity | Pressure | Rain* | Wind** | Luminosity | Snow |
|---|---|---|---|---|---|---|---|
| 1787542617 | 16.67° C | 67% | 992 hPa | 0 mm | - | 1474 W/m² | - |
| 1787542018 | 17.22° C | 64% | 992.1 hPa | 0 mm | - | 1143 W/m² | - |
| 1787541418 | 17.22° C | 64% | 991.9 hPa | 0 mm | - | 1179 W/m² | - |
| 1787540818 | 17.22° C | 66% | 991.9 hPa | 0 mm | - | 1209 W/m² | - |
| 1787540218 | 17.22° C | 66% | 992.1 hPa | 1.78 mm | - | 1233 W/m² | - |
| 1787539617 | 17.22° C | 66% | 992 hPa | 1.78 mm | - | 1263 W/m² | - |
| 1787539018 | 17.22° C | 68% | 991.9 hPa | 1.78 mm | - | 1289 W/m² | - |
| 1787538418 | 16.67° C | 68% | 991.6 hPa | 1.78 mm | - | 1304 W/m² | - |
| 1787537817 | 16.11° C | 68% | 991.6 hPa | 1.78 mm | - | 1160 W/m² | - |
| 1787537217 | 16.11° C | 69% | 991.7 hPa | 1.78 mm | - | 1112 W/m² | - |
| 1787536618 | 17.78° C | 64% | 991.7 hPa | 1.78 mm | - | 1416 W/m² | - |
| 1787536018 | 17.22° C | 67% | 991.9 hPa | 1.78 mm | - | 1444 W/m² | - |
| 1787535417 | 16.67° C | 68% | 991.7 hPa | 1.78 mm | - | 1473 W/m² | - |
| 1787534817 | 15.56° C | 73% | 991.7 hPa | 1.78 mm | - | 1265 W/m² | - |
| 1787534217 | 15.56° C | 73% | 991.7 hPa | 1.78 mm | - | 1721 W/m² | - |
| 1787533618 | 15.56° C | 72% | 991.8 hPa | 1.78 mm | - | 1828 W/m² | - |
| 1787533019 | 15° C | 75% | 991.9 hPa | 1.78 mm | - | 1478 W/m² | - |
| 1787532418 | 15.56° C | 75% | 992 hPa | 1.78 mm | - | 1214 W/m² | - |
| 1787531818 | 16.11° C | 75% | 991.8 hPa | 1.78 mm | - | 1272 W/m² | - |
| 1787531218 | 15.56° C | 76% | 991.7 hPa | 1.78 mm | - | 1253 W/m² | - |
| 1787530618 | 15° C | 77% | 991.5 hPa | 1.78 mm | - | 1124 W/m² | - |
| 1787530018 | 15° C | 79% | 991.8 hPa | 1.78 mm | - | 1200 W/m² | - |
| 1787529417 | 15.56° C | 78% | 991.6 hPa | 1.78 mm | - | 1248 W/m² | - |
| 1787528818 | 15.56° C | 78% | 991.5 hPa | 1.78 mm | - | 1197 W/m² | - |
| 1787528218 | 15° C | 81% | 991.5 hPa | 1.78 mm | - | 1152 W/m² | - |
* Rain latest hour (hover to see other rain measurements)
** Current wind speed in m/s (hover to see current wind gust speed)